Weather reports worldwide

Advertisment
Torino Venaria, Italy (16060): temperature & dewpoint: 13.11.2019 19:00:00 - 19.11.2019 19:00:00 (CET)Torino Venaria, Italy (16060): wind speed: 13.11.2019 19:00:00 - 19.11.2019 19:00:00 (CET)Torino Venaria, Italy (16060): wind direction: 13.11.2019 19:00:00 - 19.11.2019 19:00:00 (CET)Torino Venaria, Italy (16060): reduced air pressure: 13.11.2019 19:00:00 - 19.11.2019 19:00:00 (CET)
Date & Time tt [°C] td [°C] ff [km/h] ff [kn] dd ppp [hPa]
19.11.2019 19:00:00 - - - - - -
19.11.2019 18:00:00 7,2 6,4 8 4 SW 1014,2
19.11.2019 17:00:00 7,5 6,6 5 3 SSW 1013,8
19.11.2019 16:00:00 7,9 7,1 4 2 W 1013,8
19.11.2019 15:00:00 8,0 8,0 4 2 NW 1013,7
19.11.2019 14:00:00 7,2 7,2 5 3 WNW 1013,8
19.11.2019 13:00:00 5,7 5,7 4 2 WSW 1014,2
19.11.2019 12:00:00 5,2 5,2 4 2 WSW 1014,5
19.11.2019 11:00:00 4,6 4,6 4 2 WSW 1014,4
19.11.2019 10:00:00 4,4 4,4 0 0 N 1014,2
19.11.2019 09:00:00 4,1 4,1 0 0 N 1013,9
19.11.2019 08:00:00 3,9 3,9 4 2 S 1013,4
19.11.2019 07:00:00 3,9 3,9 2 1 W 1013,2
19.11.2019 06:00:00 3,8 3,8 2 1 W 1013,5
19.11.2019 05:00:00 3,9 3,9 4 2 W 1013,4
19.11.2019 04:00:00 4,2 4,2 0 0 N 1013,5
19.11.2019 03:00:00 4,1 4,1 4 2 W 1014,0
19.11.2019 02:00:00 4,2 4,2 4 2 WNW 1014,3
19.11.2019 01:00:00 4,2 4,1 4 2 NW 1014,4
19.11.2019 00:00:00 4,3 4,2 2 1 SW 1014,5
18.11.2019 23:00:00 4,5 4,2 0 0 N 1014,5
18.11.2019 22:00:00 4,7 4,6 4 2 NW 1014,7
18.11.2019 21:00:00 5,0 4,9 4 2 NW 1014,7
18.11.2019 20:00:00 5,1 4,8 4 2 NNE 1014,4
18.11.2019 19:00:00 5,2 4,5 2 1 NW 1013,8
18.11.2019 18:00:00 5,4 4,2 0 0 N 1013,4
18.11.2019 17:00:00 5,6 3,9 0 0 N 1012,9
18.11.2019 16:00:00 6,0 3,8 2 1 N 1012,7
18.11.2019 15:00:00 6,1 3,4 2 1 N 1012,3
18.11.2019 14:00:00 6,2 3,5 4 2 SE 1012,3
18.11.2019 13:00:00 6,2 4,7 2 1 WNW 1011,6
18.11.2019 12:00:00 5,7 5,4 5 3 NW 1012,3
18.11.2019 11:00:00 5,1 5,1 4 2 WNW 1012,3
18.11.2019 10:00:00 4,3 4,3 2 1 ENE 1011,8
18.11.2019 09:00:00 4,1 4,1 2 1 NNW 1010,6
18.11.2019 08:00:00 3,7 3,6 2 1 NW 1010,0
18.11.2019 07:00:00 3,5 3,2 2 1 W 1009,1
18.11.2019 06:00:00 3,8 3,8 2 1 NW 1007,9
18.11.2019 05:00:00 4,0 4,0 2 1 SSW 1007,1
18.11.2019 04:00:00 3,5 3,5 4 2 S 1006,5
18.11.2019 03:00:00 2,2 1,5 4 2 WSW 1006,4
18.11.2019 02:00:00 3,8 3,7 2 1 W 1006,0
18.11.2019 01:00:00 3,8 3,5 0 0 N 1005,8
18.11.2019 00:00:00 4,0 3,9 2 1 N 1005,8
17.11.2019 23:00:00 4,1 4,0 5 3 W 1005,2
17.11.2019 22:00:00 4,5 4,2 2 1 N 1004,9
17.11.2019 21:00:00 4,5 3,9 4 2 NE 1004,5
17.11.2019 20:00:00 4,9 3,7 9 5 NE 1004,0
17.11.2019 19:00:00 5,0 3,6 8 4 NNE 1003,1
17.11.2019 18:00:00 5,0 3,3 5 3 NNE 1002,6
17.11.2019 17:00:00 5,2 2,5 8 4 NE 1001,7
17.11.2019 16:00:00 6,1 3,2 11 6 ENE 1000,8
17.11.2019 15:00:00 7,5 2,1 11 6 ENE 999,7
17.11.2019 14:00:00 7,7 1,0 8 4 E 999,2
17.11.2019 13:00:00 7,6 4,0 5 3 ESE 999,0
17.11.2019 12:00:00 5,6 4,1 2 1 NNE 999,7
17.11.2019 11:00:00 5,0 4,3 0 0 N 1000,4
17.11.2019 10:00:00 4,2 3,9 4 2 W 1000,7
17.11.2019 09:00:00 4,1 3,8 4 2 N 1001,4
17.11.2019 08:00:00 3,8 3,7 4 2 S 1001,4
17.11.2019 07:00:00 3,0 2,7 4 2 WNW 1001,1
17.11.2019 06:00:00 2,9 2,5 2 1 W 1002,3
17.11.2019 05:00:00 3,2 2,6 4 2 SSW 1003,8
17.11.2019 04:00:00 3,7 3,1 4 2 W 1004,9
17.11.2019 03:00:00 4,3 3,9 2 1 ENE 1006,4
17.11.2019 02:00:00 3,5 2,9 2 1 NNW 1006,5
17.11.2019 01:00:00 4,1 3,7 4 2 NW 1007,4
17.11.2019 00:00:00 3,5 2,9 2 1 E 1009,2
16.11.2019 23:00:00 3,7 3,1 2 1 WNW 1009,7
16.11.2019 22:00:00 3,7 3,0 4 2 WNW 1011,1
16.11.2019 21:00:00 3,1 1,1 2 1 WNW 1010,8
16.11.2019 20:00:00 4,8 2,5 0 0 N 1011,5
16.11.2019 19:00:00 5,7 3,5 2 1 NNW 1012,2
16.11.2019 18:00:00 5,9 3,5 4 2 ENE 1012,0
16.11.2019 17:00:00 6,4 3,5 2 1 N 1011,9
16.11.2019 16:00:00 6,9 3,6 5 3 N 1011,3
16.11.2019 15:00:00 6,8 4,6 4 2 NE 1011,3
16.11.2019 14:00:00 5,9 4,5 4 2 ENE 1011,1
16.11.2019 13:00:00 5,5 4,6 8 4 E 1011,0
16.11.2019 12:00:00 5,4 4,7 8 4 NE 1011,3
16.11.2019 11:00:00 5,3 5,3 8 4 ENE 1011,3
16.11.2019 10:00:00 4,6 4,6 2 1 WNW 1010,8
16.11.2019 09:00:00 4,0 4,0 2 1 N 1010,0
16.11.2019 08:00:00 3,6 3,6 0 0 N 1009,2
16.11.2019 07:00:00 3,4 3,4 0 0 N 1008,1
16.11.2019 06:00:00 3,3 3,2 2 1 W 1007,2
16.11.2019 05:00:00 3,2 2,9 4 2 WSW 1006,7
16.11.2019 04:00:00 3,5 3,1 2 1 WNW 1005,8
16.11.2019 03:00:00 3,4 3,1 5 3 NNE 1005,7
16.11.2019 02:00:00 4,0 4,0 5 3 W 1005,0
16.11.2019 01:00:00 3,9 3,9 0 0 N 1004,4
16.11.2019 00:00:00 3,8 3,8 5 3 SSE 1004,1
15.11.2019 23:00:00 3,4 3,3 8 4 NW 1003,5
15.11.2019 22:00:00 3,5 3,2 4 2 NE 1002,7
15.11.2019 21:00:00 3,5 3,1 4 2 SSW 1001,9
15.11.2019 20:00:00 3,6 3,0 5 3 SW 1001,8
15.11.2019 19:00:00 3,6 2,9 5 3 S 1001,5
15.11.2019 18:00:00 4,1 3,2 5 3 WSW 1001,3
15.11.2019 17:00:00 5,0 3,8 8 4 SSW 1001,1
15.11.2019 16:00:00 5,5 4,0 2 1 SE 1001,0
15.11.2019 15:00:00 5,7 4,3 5 3 ESE 1000,8
15.11.2019 14:00:00 5,6 4,7 4 2 E 1000,5
15.11.2019 13:00:00 5,2 4,9 2 1 NNW 1000,2
15.11.2019 12:00:00 4,2 3,5 4 2 NW 1001,0
15.11.2019 11:00:00 3,3 2,7 5 3 ESE 1001,0
15.11.2019 10:00:00 2,7 2,1 5 3 SSW 1000,8
15.11.2019 09:00:00 2,4 1,8 8 4 SSW 999,7
15.11.2019 08:00:00 2,2 1,6 11 6 S 998,7
15.11.2019 07:00:00 2,5 1,8 8 4 S 998,2
15.11.2019 06:00:00 2,9 2,3 8 4 S 997,3
15.11.2019 05:00:00 3,1 2,8 11 6 W 997,1
15.11.2019 04:00:00 2,8 2,1 9 5 SSW 996,4
15.11.2019 03:00:00 3,2 2,6 8 4 NNW 997,5
15.11.2019 02:00:00 3,8 3,5 9 5 NNE 998,6
15.11.2019 01:00:00 3,9 3,6 13 7 NNE 999,4
15.11.2019 00:00:00 4,3 4,0 9 5 ENE 1000,1
14.11.2019 23:00:00 4,6 4,5 15 8 NNE 1001,1
14.11.2019 22:00:00 4,4 4,3 8 4 N 1001,4
14.11.2019 21:00:00 4,1 3,7 4 2 N 1002,3
14.11.2019 20:00:00 3,6 3,0 8 4 NW 1003,4
14.11.2019 19:00:00 3,2 2,3 2 1 NNE 1004,3
14.11.2019 18:00:00 3,3 2,4 8 4 N 1004,5
14.11.2019 17:00:00 3,6 2,9 5 3 E 1004,9
14.11.2019 16:00:00 3,8 2,4 5 3 N 1006,0
14.11.2019 15:00:00 3,9 2,2 8 4 NNW 1005,9
14.11.2019 14:00:00 4,4 2,6 5 3 N 1006,4
14.11.2019 13:00:00 5,1 2,1 9 5 N 1007,0
14.11.2019 12:00:00 5,1 1,2 13 7 NNE 1007,4
14.11.2019 11:00:00 5,3 0,0 5 3 ENE 1008,3
14.11.2019 10:00:00 5,0 1,4 4 2 NNE 1008,0
14.11.2019 09:00:00 4,0 1,7 5 3 NE 1007,7
14.11.2019 08:00:00 2,4 1,2 2 1 NE 1007,3
14.11.2019 07:00:00 2,1 1,1 0 0 N 1007,0
14.11.2019 06:00:00 1,1 0,5 4 2 N 1006,8
14.11.2019 05:00:00 -1,2 -2,2 2 1 WSW 1006,7
14.11.2019 04:00:00 -2,9 -4,5 2 1 WNW 1006,8
14.11.2019 03:00:00 -3,2 -4,9 5 3 WNW 1006,4
14.11.2019 02:00:00 -3,0 -4,7 2 1 S 1006,0
14.11.2019 01:00:00 -3,1 -5,5 0 0 N 1005,4
14.11.2019 00:00:00 -2,3 -4,5 8 4 WNW 1005,0
13.11.2019 23:00:00 -2,2 -5,1 0 0 N 1004,8
13.11.2019 22:00:00 -1,5 -5,2 0 0 N 1004,4
13.11.2019 21:00:00 -0,7 -4,8 5 3 W 1003,7
13.11.2019 20:00:00 1,4 -3,0 8 4 WNW 1002,9
13.11.2019 19:00:00 1,7 -5,1 8 4 W 1002,2

tt = temperature
td = dewpoint
ff = wind speed
dd = wind direction
ppp = reduced air pressure

Next stations